createdAt,value
2018-12-14T00:01:05.098Z,2.50
2018-12-14T00:03:40.828Z,2.40
2018-12-14T00:06:10.852Z,2.40
2018-12-14T00:08:45.141Z,2.30
2018-12-14T00:11:18.965Z,2.30
2018-12-14T00:13:54.198Z,2.30
2018-12-14T00:16:25.446Z,2.30
2018-12-14T00:19:04.162Z,2.40
2018-12-14T00:21:37.783Z,2.40
2018-12-14T00:24:07.436Z,2.40
2018-12-14T00:26:36.870Z,2.40
2018-12-14T00:29:06.092Z,2.30
2018-12-14T00:31:36.892Z,2.30
2018-12-14T00:34:23.733Z,2.30
2018-12-14T00:37:00.166Z,2.40
2018-12-14T00:39:31.627Z,2.30
2018-12-14T00:42:02.526Z,2.30
2018-12-14T00:44:32.581Z,2.30
2018-12-14T00:47:02.245Z,2.20
2018-12-14T00:49:40.099Z,2.20
2018-12-14T00:52:09.761Z,2.20
2018-12-14T00:54:38.872Z,2.10
2018-12-14T00:57:08.559Z,2.10
2018-12-14T00:59:37.885Z,2.10
2018-12-14T01:02:10.959Z,2.10
2018-12-14T01:04:40.497Z,2.10
2018-12-14T01:07:10.897Z,2.20
2018-12-14T01:09:41.062Z,2.10
2018-12-14T01:12:10.238Z,2.10
2018-12-14T01:14:39.707Z,2.10
2018-12-14T01:17:10.326Z,2.20
2018-12-14T01:22:20.597Z,2.10
2018-12-14T01:24:50.674Z,2.10
2018-12-14T01:27:24.164Z,2.10
2018-12-14T01:30:02.101Z,2.10
2018-12-14T01:32:39.300Z,2.10
2018-12-14T01:35:20.574Z,2.00
2018-12-14T01:37:52.123Z,2.10
2018-12-14T01:40:21.773Z,2.10
2018-12-14T01:42:52.854Z,2.10
2018-12-14T01:45:22.593Z,2.00
2018-12-14T01:47:58.228Z,1.90
2018-12-14T01:50:32.645Z,1.90
2018-12-14T01:53:06.089Z,1.90
2018-12-14T01:55:36.220Z,1.90
2018-12-14T01:58:07.161Z,1.90
2018-12-14T02:00:36.895Z,1.90
2018-12-14T02:03:06.791Z,1.90
2018-12-14T02:05:36.866Z,1.90
2018-12-14T02:08:11.493Z,1.90
2018-12-14T02:10:42.661Z,1.90
2018-12-14T02:13:15.737Z,1.80
2018-12-14T02:15:51.942Z,1.80
2018-12-14T02:18:26.741Z,1.80
2018-12-14T02:20:56.045Z,1.80
2018-12-14T02:23:37.664Z,1.80
2018-12-14T02:26:16.681Z,1.90
2018-12-14T02:28:49.277Z,1.80
2018-12-14T02:31:19.943Z,1.80
2018-12-14T02:33:52.381Z,1.80
2018-12-14T02:36:22.893Z,1.80
2018-12-14T02:38:53.422Z,1.80
2018-12-14T02:41:30.226Z,1.80
2018-12-14T02:44:00.138Z,1.70
2018-12-14T02:46:30.283Z,1.70
2018-12-14T02:49:14.075Z,1.60
2018-12-14T02:51:46.830Z,1.60
2018-12-14T02:54:16.872Z,1.60
2018-12-14T02:56:47.748Z,1.70
2018-12-14T02:59:20.943Z,1.70
2018-12-14T03:01:56.951Z,1.60
2018-12-14T03:04:26.650Z,1.60
2018-12-14T03:06:56.109Z,1.50
2018-12-14T03:09:27.424Z,1.60
2018-12-14T03:12:03.117Z,1.50
2018-12-14T03:14:36.048Z,1.50
2018-12-14T03:17:06.713Z,1.60
2018-12-14T03:19:36.368Z,1.60
2018-12-14T03:22:06.258Z,1.60
2018-12-14T03:24:35.608Z,1.60
2018-12-14T03:27:04.913Z,1.60
2018-12-14T03:29:35.461Z,1.60
2018-12-14T03:32:06.884Z,1.50
2018-12-14T03:34:36.056Z,1.50
2018-12-14T03:37:10.732Z,1.50
2018-12-14T03:39:40.369Z,1.50
2018-12-14T03:42:09.449Z,1.50
2018-12-14T03:44:38.588Z,1.50
2018-12-14T03:47:08.772Z,1.50
2018-12-14T03:49:37.885Z,1.50
2018-12-14T03:52:09.406Z,1.50
2018-12-14T03:54:46.724Z,1.50
2018-12-14T03:57:17.331Z,1.50
2018-12-14T03:59:47.947Z,1.50
2018-12-14T04:02:17.250Z,1.50
2018-12-14T04:04:54.599Z,1.50
2018-12-14T04:07:29.937Z,1.50
2018-12-14T04:09:58.928Z,1.50
2018-12-14T04:12:28.707Z,1.40
2018-12-14T04:15:03.285Z,1.50
2018-12-14T04:17:36.944Z,1.50
2018-12-14T04:20:06.402Z,1.50
2018-12-14T04:22:36.372Z,1.50
2018-12-14T04:25:10.623Z,1.50
2018-12-14T04:27:43.002Z,1.50
2018-12-14T04:30:17.816Z,1.60
2018-12-14T04:32:49.821Z,1.50
2018-12-14T04:35:25.366Z,1.50
2018-12-14T04:37:54.513Z,1.50
2018-12-14T04:40:23.561Z,1.50
2018-12-14T04:42:52.774Z,1.50
2018-12-14T04:48:16.290Z,1.40
2018-12-14T04:50:45.657Z,1.40
2018-12-14T04:53:23.411Z,1.40
2018-12-14T04:55:55.938Z,1.30
2018-12-14T04:58:25.254Z,1.30
2018-12-14T05:00:54.874Z,1.20
2018-12-14T05:03:26.649Z,1.20
2018-12-14T05:05:56.037Z,1.20
2018-12-14T05:08:27.110Z,1.20
2018-12-14T05:10:56.643Z,1.30
2018-12-14T05:13:31.016Z,1.30
2018-12-14T05:16:00.490Z,1.30
2018-12-14T05:18:29.668Z,1.30
2018-12-14T05:21:05.864Z,1.30
2018-12-14T05:23:36.606Z,1.30
2018-12-14T05:26:05.988Z,1.40
2018-12-14T05:28:35.023Z,1.40
2018-12-14T05:31:04.171Z,1.40
2018-12-14T05:33:33.379Z,1.40
2018-12-14T05:36:07.055Z,1.40
2018-12-14T05:38:36.176Z,1.30
2018-12-14T05:41:05.850Z,1.30
2018-12-14T05:43:36.691Z,1.40
2018-12-14T05:46:06.636Z,1.30
2018-12-14T05:48:35.895Z,1.30
2018-12-14T05:51:06.361Z,1.40
2018-12-14T05:53:36.295Z,1.30
2018-12-14T05:56:05.881Z,1.40
2018-12-14T05:58:40.899Z,1.40
2018-12-14T06:01:11.293Z,1.40
2018-12-14T06:03:40.422Z,1.40
2018-12-14T06:06:09.620Z,1.40
2018-12-14T06:08:38.789Z,1.50
2018-12-14T06:11:09.313Z,1.50
2018-12-14T06:13:45.921Z,1.50
2018-12-14T06:16:17.925Z,1.50
2018-12-14T06:18:53.904Z,1.50
2018-12-14T06:21:30.318Z,1.60
2018-12-14T06:24:05.874Z,1.60
2018-12-14T06:26:37.868Z,1.60
2018-12-14T06:29:07.235Z,1.50
2018-12-14T06:31:40.172Z,1.50
2018-12-14T06:34:09.544Z,1.50
2018-12-14T06:36:41.802Z,1.60
2018-12-14T06:39:16.918Z,1.50
2018-12-14T06:41:53.897Z,1.50
2018-12-14T06:44:24.616Z,1.50
2018-12-14T06:46:53.680Z,1.50
2018-12-14T06:49:26.896Z,1.60
2018-12-14T06:51:59.779Z,1.50
2018-12-14T06:54:30.078Z,1.60
2018-12-14T06:56:59.573Z,1.50
2018-12-14T22:11:02.469Z,1.30
2018-12-14T22:13:43.388Z,1.30
2018-12-14T22:19:01.442Z,1.30
2018-12-14T22:21:39.766Z,1.30
2018-12-14T22:24:10.478Z,1.30
2018-12-14T22:26:58.270Z,1.30
2018-12-14T22:29:31.627Z,1.30
2018-12-14T22:32:06.196Z,1.30
2018-12-14T22:34:44.898Z,1.30
2018-12-14T22:37:25.051Z,1.30
2018-12-14T22:40:03.543Z,1.20
2018-12-14T22:42:33.922Z,1.30
2018-12-14T22:45:06.340Z,1.20
2018-12-14T22:47:46.046Z,1.20
2018-12-14T22:50:22.979Z,1.20
2018-12-14T22:52:53.575Z,1.20
2018-12-14T22:55:26.948Z,1.20
2018-12-14T22:58:00.218Z,1.20
2018-12-14T23:00:37.038Z,1.20
2018-12-14T23:03:09.451Z,1.10
2018-12-14T23:05:41.463Z,1.10
2018-12-14T23:08:19.564Z,1.10
2018-12-14T23:10:51.447Z,1.10
2018-12-14T23:13:22.203Z,1.10
2018-12-14T23:15:52.786Z,1.10
2018-12-14T23:18:27.410Z,1.10
2018-12-14T23:20:58.630Z,1.20
2018-12-14T23:23:30.148Z,1.10
2018-12-14T23:26:03.723Z,1.10
2018-12-14T23:28:46.523Z,1.10
2018-12-14T23:31:20.564Z,1.20
2018-12-14T23:34:02.271Z,1.20
2018-12-14T23:36:31.999Z,1.20
2018-12-14T23:39:03.756Z,1.20
2018-12-14T23:41:33.289Z,1.10
2018-12-14T23:44:03.832Z,1.10
2018-12-14T23:46:38.410Z,1.10
2018-12-14T23:49:10.762Z,1.20
2018-12-14T23:51:45.864Z,1.10
2018-12-14T23:54:21.131Z,1.10
2018-12-14T23:57:00.734Z,1.10
2018-12-14T23:59:29.920Z,1.20
